sensor_id;sensor_type;location;lat;lon;timestamp;P1;durP1;ratioP1;P2;durP2;ratioP2
4023;SDS011;2026;51.002;13.668;2022-10-13T00:00:18;17.27;;;8.40;;
4023;SDS011;2026;51.002;13.668;2022-10-13T00:05:22;14.90;;;8.27;;
4023;SDS011;2026;51.002;13.668;2022-10-13T00:10:26;21.10;;;9.37;;
4023;SDS011;2026;51.002;13.668;2022-10-13T00:15:29;14.67;;;8.10;;
4023;SDS011;2026;51.002;13.668;2022-10-13T00:20:32;15.53;;;8.30;;
4023;SDS011;2026;51.002;13.668;2022-10-13T00:25:40;13.50;;;7.87;;
4023;SDS011;2026;51.002;13.668;2022-10-13T00:30:44;16.00;;;8.60;;
4023;SDS011;2026;51.002;13.668;2022-10-13T00:35:47;14.30;;;8.83;;
4023;SDS011;2026;51.002;13.668;2022-10-13T00:40:53;15.20;;;8.90;;
4023;SDS011;2026;51.002;13.668;2022-10-13T00:45:57;14.23;;;8.80;;
4023;SDS011;2026;51.002;13.668;2022-10-13T00:51:00;12.40;;;8.53;;
4023;SDS011;2026;51.002;13.668;2022-10-13T00:56:05;15.50;;;9.20;;
4023;SDS011;2026;51.002;13.668;2022-10-13T01:01:11;17.77;;;9.67;;
4023;SDS011;2026;51.002;13.668;2022-10-13T01:06:14;16.03;;;9.97;;
4023;SDS011;2026;51.002;13.668;2022-10-13T01:11:29;17.07;;;9.83;;
4023;SDS011;2026;51.002;13.668;2022-10-13T01:16:46;15.27;;;8.87;;
4023;SDS011;2026;51.002;13.668;2022-10-13T01:22:00;13.53;;;8.63;;
4023;SDS011;2026;51.002;13.668;2022-10-13T01:27:21;14.67;;;9.03;;
4023;SDS011;2026;51.002;13.668;2022-10-13T01:32:50;14.70;;;9.00;;
4023;SDS011;2026;51.002;13.668;2022-10-13T01:38:02;15.50;;;9.40;;
4023;SDS011;2026;51.002;13.668;2022-10-13T01:43:09;19.03;;;11.00;;
4023;SDS011;2026;51.002;13.668;2022-10-13T01:48:17;18.77;;;11.03;;
4023;SDS011;2026;51.002;13.668;2022-10-13T01:53:24;18.47;;;10.60;;
4023;SDS011;2026;51.002;13.668;2022-10-13T01:58:29;17.27;;;9.90;;
4023;SDS011;2026;51.002;13.668;2022-10-13T02:03:38;18.10;;;10.57;;
4023;SDS011;2026;51.002;13.668;2022-10-13T02:08:52;16.80;;;11.43;;
4023;SDS011;2026;51.002;13.668;2022-10-13T02:14:01;17.80;;;10.47;;
4023;SDS011;2026;51.002;13.668;2022-10-13T02:19:09;13.93;;;10.03;;
4023;SDS011;2026;51.002;13.668;2022-10-13T02:24:14;17.33;;;10.90;;
4023;SDS011;2026;51.002;13.668;2022-10-13T02:29:17;21.30;;;10.37;;
4023;SDS011;2026;51.002;13.668;2022-10-13T02:34:22;16.53;;;9.80;;
4023;SDS011;2026;51.002;13.668;2022-10-13T02:39:25;16.97;;;9.87;;
4023;SDS011;2026;51.002;13.668;2022-10-13T02:44:28;17.20;;;10.20;;
4023;SDS011;2026;51.002;13.668;2022-10-13T02:49:32;15.10;;;10.60;;
4023;SDS011;2026;51.002;13.668;2022-10-13T02:54:35;14.80;;;9.50;;
4023;SDS011;2026;51.002;13.668;2022-10-13T02:59:38;16.57;;;10.00;;
4023;SDS011;2026;51.002;13.668;2022-10-13T03:04:42;14.73;;;10.20;;
4023;SDS011;2026;51.002;13.668;2022-10-13T03:09:45;17.33;;;10.47;;
4023;SDS011;2026;51.002;13.668;2022-10-13T03:14:48;16.60;;;10.30;;
4023;SDS011;2026;51.002;13.668;2022-10-13T03:20:11;14.00;;;9.70;;
4023;SDS011;2026;51.002;13.668;2022-10-13T03:25:15;22.10;;;10.80;;
4023;SDS011;2026;51.002;13.668;2022-10-13T03:30:18;17.53;;;10.20;;
4023;SDS011;2026;51.002;13.668;2022-10-13T03:35:22;21.67;;;9.70;;
4023;SDS011;2026;51.002;13.668;2022-10-13T03:40:25;14.67;;;9.70;;
4023;SDS011;2026;51.002;13.668;2022-10-13T03:45:28;21.93;;;11.53;;
4023;SDS011;2026;51.002;13.668;2022-10-13T03:50:33;16.70;;;10.40;;
4023;SDS011;2026;51.002;13.668;2022-10-13T03:55:36;19.80;;;12.70;;
4023;SDS011;2026;51.002;13.668;2022-10-13T04:00:39;22.50;;;12.43;;
4023;SDS011;2026;51.002;13.668;2022-10-13T04:05:43;18.43;;;12.20;;
4023;SDS011;2026;51.002;13.668;2022-10-13T04:10:46;20.37;;;12.23;;
4023;SDS011;2026;51.002;13.668;2022-10-13T04:15:49;25.80;;;13.13;;
4023;SDS011;2026;51.002;13.668;2022-10-13T04:20:53;19.67;;;12.40;;
4023;SDS011;2026;51.002;13.668;2022-10-13T04:25:56;21.77;;;12.63;;
4023;SDS011;2026;51.002;13.668;2022-10-13T04:30:59;30.63;;;13.80;;
4023;SDS011;2026;51.002;13.668;2022-10-13T04:36:06;28.57;;;12.93;;
4023;SDS011;2026;51.002;13.668;2022-10-13T04:41:12;20.20;;;12.77;;
4023;SDS011;2026;51.002;13.668;2022-10-13T04:46:17;19.13;;;12.50;;
4023;SDS011;2026;51.002;13.668;2022-10-13T04:51:24;23.53;;;12.67;;
4023;SDS011;2026;51.002;13.668;2022-10-13T04:56:27;22.93;;;12.57;;
4023;SDS011;2026;51.002;13.668;2022-10-13T05:01:35;19.47;;;12.53;;
4023;SDS011;2026;51.002;13.668;2022-10-13T05:06:42;18.03;;;10.33;;
4023;SDS011;2026;51.002;13.668;2022-10-13T05:12:05;16.73;;;10.73;;
4023;SDS011;2026;51.002;13.668;2022-10-13T05:17:08;21.90;;;11.03;;
4023;SDS011;2026;51.002;13.668;2022-10-13T05:22:13;18.63;;;11.80;;
4023;SDS011;2026;51.002;13.668;2022-10-13T05:27:16;15.37;;;11.23;;
4023;SDS011;2026;51.002;13.668;2022-10-13T05:32:18;39.43;;;12.03;;
4023;SDS011;2026;51.002;13.668;2022-10-13T05:37:23;17.13;;;11.10;;
4023;SDS011;2026;51.002;13.668;2022-10-13T05:42:27;17.90;;;12.53;;
4023;SDS011;2026;51.002;13.668;2022-10-13T05:47:30;21.20;;;13.80;;
4023;SDS011;2026;51.002;13.668;2022-10-13T05:52:34;23.67;;;13.07;;
4023;SDS011;2026;51.002;13.668;2022-10-13T05:57:39;18.10;;;12.00;;
4023;SDS011;2026;51.002;13.668;2022-10-13T06:02:46;19.47;;;11.77;;
4023;SDS011;2026;51.002;13.668;2022-10-13T06:07:55;22.63;;;12.50;;
4023;SDS011;2026;51.002;13.668;2022-10-13T06:12:58;17.00;;;11.70;;
4023;SDS011;2026;51.002;13.668;2022-10-13T06:18:01;20.63;;;12.97;;
4023;SDS011;2026;51.002;13.668;2022-10-13T06:23:10;21.43;;;13.33;;
4023;SDS011;2026;51.002;13.668;2022-10-13T06:28:13;19.73;;;13.03;;
4023;SDS011;2026;51.002;13.668;2022-10-13T06:33:16;25.73;;;14.60;;
4023;SDS011;2026;51.002;13.668;2022-10-13T06:38:20;21.30;;;13.20;;
4023;SDS011;2026;51.002;13.668;2022-10-13T06:43:23;20.50;;;12.97;;
4023;SDS011;2026;51.002;13.668;2022-10-13T06:48:39;17.23;;;12.57;;
4023;SDS011;2026;51.002;13.668;2022-10-13T06:53:44;20.33;;;13.73;;
4023;SDS011;2026;51.002;13.668;2022-10-13T06:58:47;19.57;;;12.60;;
4023;SDS011;2026;51.002;13.668;2022-10-13T07:03:50;25.27;;;14.60;;
4023;SDS011;2026;51.002;13.668;2022-10-13T07:08:55;19.27;;;12.67;;
4023;SDS011;2026;51.002;13.668;2022-10-13T07:13:59;22.40;;;13.33;;
4023;SDS011;2026;51.002;13.668;2022-10-13T07:19:07;20.97;;;13.87;;
4023;SDS011;2026;51.002;13.668;2022-10-13T07:24:12;23.50;;;13.93;;
4023;SDS011;2026;51.002;13.668;2022-10-13T07:29:15;21.03;;;14.17;;
4023;SDS011;2026;51.002;13.668;2022-10-13T07:34:18;22.47;;;14.20;;
4023;SDS011;2026;51.002;13.668;2022-10-13T07:39:22;23.70;;;14.57;;
4023;SDS011;2026;51.002;13.668;2022-10-13T07:44:25;19.47;;;12.30;;
4023;SDS011;2026;51.002;13.668;2022-10-13T07:49:28;21.17;;;13.60;;
4023;SDS011;2026;51.002;13.668;2022-10-13T07:54:34;19.10;;;12.97;;
4023;SDS011;2026;51.002;13.668;2022-10-13T07:59:37;21.57;;;12.30;;
4023;SDS011;2026;51.002;13.668;2022-10-13T08:04:43;22.27;;;13.73;;
4023;SDS011;2026;51.002;13.668;2022-10-13T08:09:47;22.33;;;13.80;;
4023;SDS011;2026;51.002;13.668;2022-10-13T08:14:50;18.10;;;13.67;;
4023;SDS011;2026;51.002;13.668;2022-10-13T08:19:53;21.93;;;13.07;;
4023;SDS011;2026;51.002;13.668;2022-10-13T08:25:00;20.90;;;12.40;;
4023;SDS011;2026;51.002;13.668;2022-10-13T08:30:04;19.83;;;13.50;;
4023;SDS011;2026;51.002;13.668;2022-10-13T08:35:10;26.50;;;13.53;;
4023;SDS011;2026;51.002;13.668;2022-10-13T08:40:17;25.13;;;12.80;;
4023;SDS011;2026;51.002;13.668;2022-10-13T08:45:24;21.60;;;12.40;;
4023;SDS011;2026;51.002;13.668;2022-10-13T08:50:43;19.03;;;12.90;;
4023;SDS011;2026;51.002;13.668;2022-10-13T08:55:51;20.53;;;13.17;;
4023;SDS011;2026;51.002;13.668;2022-10-13T09:00:59;21.90;;;12.83;;
4023;SDS011;2026;51.002;13.668;2022-10-13T09:06:12;18.30;;;11.70;;
4023;SDS011;2026;51.002;13.668;2022-10-13T09:11:18;18.27;;;11.93;;
4023;SDS011;2026;51.002;13.668;2022-10-13T09:16:25;21.83;;;12.60;;
4023;SDS011;2026;51.002;13.668;2022-10-13T09:21:30;18.30;;;12.27;;
4023;SDS011;2026;51.002;13.668;2022-10-13T09:26:37;20.23;;;12.20;;
4023;SDS011;2026;51.002;13.668;2022-10-13T09:31:40;15.80;;;10.30;;
4023;SDS011;2026;51.002;13.668;2022-10-13T09:36:57;18.30;;;11.50;;
4023;SDS011;2026;51.002;13.668;2022-10-13T09:42:17;16.40;;;10.60;;
4023;SDS011;2026;51.002;13.668;2022-10-13T09:47:23;16.67;;;9.90;;
4023;SDS011;2026;51.002;13.668;2022-10-13T09:52:28;20.53;;;10.20;;
4023;SDS011;2026;51.002;13.668;2022-10-13T09:57:33;15.27;;;9.40;;
4023;SDS011;2026;51.002;13.668;2022-10-13T10:02:44;14.17;;;9.80;;
4023;SDS011;2026;51.002;13.668;2022-10-13T10:07:50;12.07;;;7.97;;
4023;SDS011;2026;51.002;13.668;2022-10-13T10:12:55;15.97;;;8.00;;
4023;SDS011;2026;51.002;13.668;2022-10-13T10:17:59;9.93;;;6.23;;
4023;SDS011;2026;51.002;13.668;2022-10-13T10:23:10;13.43;;;7.00;;
4023;SDS011;2026;51.002;13.668;2022-10-13T10:28:26;9.20;;;6.70;;
4023;SDS011;2026;51.002;13.668;2022-10-13T10:33:54;9.67;;;7.13;;
4023;SDS011;2026;51.002;13.668;2022-10-13T10:39:07;17.93;;;8.70;;
4023;SDS011;2026;51.002;13.668;2022-10-13T10:44:20;10.03;;;7.43;;
4023;SDS011;2026;51.002;13.668;2022-10-13T10:49:31;16.97;;;8.40;;
4023;SDS011;2026;51.002;13.668;2022-10-13T10:54:38;12.47;;;7.40;;
4023;SDS011;2026;51.002;13.668;2022-10-13T10:59:53;11.73;;;7.10;;
4023;SDS011;2026;51.002;13.668;2022-10-13T11:05:02;13.93;;;8.50;;
4023;SDS011;2026;51.002;13.668;2022-10-13T11:10:17;11.30;;;8.20;;
4023;SDS011;2026;51.002;13.668;2022-10-13T11:15:24;10.80;;;7.37;;
4023;SDS011;2026;51.002;13.668;2022-10-13T11:20:47;13.60;;;7.97;;
4023;SDS011;2026;51.002;13.668;2022-10-13T11:31:37;13.67;;;6.57;;
4023;SDS011;2026;51.002;13.668;2022-10-13T11:36:53;11.20;;;6.67;;
4023;SDS011;2026;51.002;13.668;2022-10-13T11:42:01;8.90;;;6.10;;
4023;SDS011;2026;51.002;13.668;2022-10-13T11:47:16;14.73;;;6.70;;
4023;SDS011;2026;51.002;13.668;2022-10-13T11:52:35;10.27;;;6.07;;
4023;SDS011;2026;51.002;13.668;2022-10-13T11:57:50;13.63;;;6.43;;
4023;SDS011;2026;51.002;13.668;2022-10-13T12:02:55;8.20;;;7.07;;
4023;SDS011;2026;51.002;13.668;2022-10-13T12:07:59;12.30;;;7.20;;
4023;SDS011;2026;51.002;13.668;2022-10-13T12:13:14;9.63;;;6.37;;
4023;SDS011;2026;51.002;13.668;2022-10-13T12:18:25;11.57;;;5.80;;
4023;SDS011;2026;51.002;13.668;2022-10-13T12:23:29;15.67;;;8.77;;
4023;SDS011;2026;51.002;13.668;2022-10-13T12:28:43;14.27;;;6.40;;
4023;SDS011;2026;51.002;13.668;2022-10-13T12:33:52;8.90;;;5.50;;
4023;SDS011;2026;51.002;13.668;2022-10-13T12:38:57;8.23;;;5.10;;
4023;SDS011;2026;51.002;13.668;2022-10-13T12:44:03;5.80;;;4.90;;
4023;SDS011;2026;51.002;13.668;2022-10-13T12:49:13;8.27;;;4.83;;
4023;SDS011;2026;51.002;13.668;2022-10-13T12:54:20;8.00;;;4.83;;
4023;SDS011;2026;51.002;13.668;2022-10-13T12:59:25;9.40;;;5.30;;
4023;SDS011;2026;51.002;13.668;2022-10-13T13:04:38;8.60;;;5.33;;
4023;SDS011;2026;51.002;13.668;2022-10-13T13:09:57;14.13;;;5.03;;
4023;SDS011;2026;51.002;13.668;2022-10-13T13:15:16;9.40;;;5.53;;
4023;SDS011;2026;51.002;13.668;2022-10-13T13:20:35;10.23;;;5.83;;
4023;SDS011;2026;51.002;13.668;2022-10-13T13:25:38;10.50;;;6.67;;
4023;SDS011;2026;51.002;13.668;2022-10-13T13:30:41;11.17;;;6.70;;
4023;SDS011;2026;51.002;13.668;2022-10-13T13:35:46;8.90;;;6.37;;
4023;SDS011;2026;51.002;13.668;2022-10-13T13:40:49;16.53;;;7.10;;
4023;SDS011;2026;51.002;13.668;2022-10-13T13:45:52;12.90;;;7.80;;
4023;SDS011;2026;51.002;13.668;2022-10-13T13:50:57;11.40;;;7.20;;
4023;SDS011;2026;51.002;13.668;2022-10-13T13:56:01;11.53;;;7.13;;
4023;SDS011;2026;51.002;13.668;2022-10-13T14:01:04;10.77;;;7.70;;
4023;SDS011;2026;51.002;13.668;2022-10-13T14:06:13;12.87;;;7.60;;
4023;SDS011;2026;51.002;13.668;2022-10-13T14:11:18;13.73;;;7.60;;
4023;SDS011;2026;51.002;13.668;2022-10-13T14:16:22;14.77;;;7.37;;
4023;SDS011;2026;51.002;13.668;2022-10-13T14:21:27;13.13;;;7.70;;
4023;SDS011;2026;51.002;13.668;2022-10-13T14:26:30;12.43;;;8.07;;
4023;SDS011;2026;51.002;13.668;2022-10-13T14:31:33;11.27;;;7.63;;
4023;SDS011;2026;51.002;13.668;2022-10-13T14:36:38;17.97;;;8.20;;
4023;SDS011;2026;51.002;13.668;2022-10-13T14:41:41;16.73;;;7.37;;
4023;SDS011;2026;51.002;13.668;2022-10-13T14:46:44;12.53;;;7.90;;
4023;SDS011;2026;51.002;13.668;2022-10-13T14:51:48;12.93;;;8.20;;
4023;SDS011;2026;51.002;13.668;2022-10-13T14:56:51;11.93;;;8.33;;
4023;SDS011;2026;51.002;13.668;2022-10-13T15:01:54;10.87;;;7.50;;
4023;SDS011;2026;51.002;13.668;2022-10-13T15:06:58;13.90;;;9.00;;
4023;SDS011;2026;51.002;13.668;2022-10-13T15:12:03;17.30;;;9.50;;
4023;SDS011;2026;51.002;13.668;2022-10-13T15:17:07;16.43;;;10.20;;
4023;SDS011;2026;51.002;13.668;2022-10-13T15:22:20;12.70;;;9.40;;
4023;SDS011;2026;51.002;13.668;2022-10-13T15:27:24;13.87;;;8.50;;
4023;SDS011;2026;51.002;13.668;2022-10-13T15:32:27;11.30;;;8.50;;
4023;SDS011;2026;51.002;13.668;2022-10-13T15:37:35;14.93;;;9.20;;
4023;SDS011;2026;51.002;13.668;2022-10-13T15:42:38;12.27;;;9.00;;
4023;SDS011;2026;51.002;13.668;2022-10-13T15:47:41;9.50;;;7.53;;
4023;SDS011;2026;51.002;13.668;2022-10-13T15:52:45;13.63;;;8.47;;
4023;SDS011;2026;51.002;13.668;2022-10-13T15:57:48;13.10;;;8.53;;
4023;SDS011;2026;51.002;13.668;2022-10-13T16:02:52;19.20;;;10.67;;
4023;SDS011;2026;51.002;13.668;2022-10-13T16:07:56;24.43;;;13.80;;
4023;SDS011;2026;51.002;13.668;2022-10-13T16:13:00;22.90;;;13.43;;
4023;SDS011;2026;51.002;13.668;2022-10-13T16:18:03;17.17;;;12.70;;
4023;SDS011;2026;51.002;13.668;2022-10-13T16:23:07;22.53;;;14.23;;
4023;SDS011;2026;51.002;13.668;2022-10-13T16:28:10;22.17;;;13.60;;
4023;SDS011;2026;51.002;13.668;2022-10-13T16:33:15;24.80;;;14.93;;
4023;SDS011;2026;51.002;13.668;2022-10-13T16:38:19;19.93;;;13.67;;
4023;SDS011;2026;51.002;13.668;2022-10-13T16:43:22;28.53;;;17.20;;
4023;SDS011;2026;51.002;13.668;2022-10-13T16:48:27;22.30;;;13.23;;
4023;SDS011;2026;51.002;13.668;2022-10-13T16:53:32;22.50;;;14.67;;
4023;SDS011;2026;51.002;13.668;2022-10-13T16:58:35;20.30;;;14.93;;
4023;SDS011;2026;51.002;13.668;2022-10-13T17:03:43;15.37;;;13.03;;
4023;SDS011;2026;51.002;13.668;2022-10-13T17:08:49;18.67;;;13.53;;
4023;SDS011;2026;51.002;13.668;2022-10-13T17:13:52;26.43;;;18.47;;
4023;SDS011;2026;51.002;13.668;2022-10-13T17:18:57;22.73;;;15.30;;
4023;SDS011;2026;51.002;13.668;2022-10-13T17:24:14;24.10;;;14.83;;
4023;SDS011;2026;51.002;13.668;2022-10-13T17:29:18;22.30;;;14.67;;
4023;SDS011;2026;51.002;13.668;2022-10-13T17:34:21;21.83;;;14.20;;
4023;SDS011;2026;51.002;13.668;2022-10-13T17:39:26;23.37;;;15.50;;
4023;SDS011;2026;51.002;13.668;2022-10-13T17:44:30;31.03;;;19.27;;
4023;SDS011;2026;51.002;13.668;2022-10-13T17:49:33;27.00;;;17.10;;
4023;SDS011;2026;51.002;13.668;2022-10-13T17:54:38;18.57;;;14.63;;
4023;SDS011;2026;51.002;13.668;2022-10-13T17:59:41;22.37;;;15.00;;
4023;SDS011;2026;51.002;13.668;2022-10-13T18:04:44;22.80;;;14.93;;
4023;SDS011;2026;51.002;13.668;2022-10-13T18:09:50;31.73;;;24.10;;
4023;SDS011;2026;51.002;13.668;2022-10-13T18:14:54;26.07;;;20.70;;
4023;SDS011;2026;51.002;13.668;2022-10-13T18:19:57;26.80;;;17.20;;
4023;SDS011;2026;51.002;13.668;2022-10-13T18:25:01;29.43;;;14.37;;
4023;SDS011;2026;51.002;13.668;2022-10-13T18:30:04;26.20;;;16.47;;
4023;SDS011;2026;51.002;13.668;2022-10-13T18:35:10;23.90;;;16.10;;
4023;SDS011;2026;51.002;13.668;2022-10-13T18:40:14;27.63;;;16.97;;
4023;SDS011;2026;51.002;13.668;2022-10-13T18:45:19;29.67;;;15.17;;
4023;SDS011;2026;51.002;13.668;2022-10-13T18:50:22;24.83;;;14.50;;
4023;SDS011;2026;51.002;13.668;2022-10-13T18:55:27;22.03;;;14.80;;
4023;SDS011;2026;51.002;13.668;2022-10-13T19:00:30;19.03;;;13.37;;
4023;SDS011;2026;51.002;13.668;2022-10-13T19:05:35;20.10;;;14.70;;
4023;SDS011;2026;51.002;13.668;2022-10-13T19:10:40;22.97;;;15.60;;
4023;SDS011;2026;51.002;13.668;2022-10-13T19:15:43;28.87;;;17.13;;
4023;SDS011;2026;51.002;13.668;2022-10-13T19:20:46;27.10;;;16.77;;
4023;SDS011;2026;51.002;13.668;2022-10-13T19:25:50;27.90;;;16.90;;
4023;SDS011;2026;51.002;13.668;2022-10-13T19:30:53;27.70;;;15.50;;
4023;SDS011;2026;51.002;13.668;2022-10-13T19:35:56;28.03;;;17.03;;
4023;SDS011;2026;51.002;13.668;2022-10-13T19:41:01;25.40;;;14.63;;
4023;SDS011;2026;51.002;13.668;2022-10-13T19:46:07;28.50;;;16.67;;
4023;SDS011;2026;51.002;13.668;2022-10-13T19:51:11;26.90;;;18.10;;
4023;SDS011;2026;51.002;13.668;2022-10-13T19:56:20;27.77;;;17.43;;
4023;SDS011;2026;51.002;13.668;2022-10-13T20:01:25;30.47;;;19.33;;
4023;SDS011;2026;51.002;13.668;2022-10-13T20:06:28;51.47;;;27.90;;
4023;SDS011;2026;51.002;13.668;2022-10-13T20:11:33;35.50;;;22.50;;
4023;SDS011;2026;51.002;13.668;2022-10-13T20:16:36;22.63;;;15.57;;
4023;SDS011;2026;51.002;13.668;2022-10-13T20:21:39;25.47;;;17.20;;
4023;SDS011;2026;51.002;13.668;2022-10-13T20:26:45;31.30;;;18.03;;
4023;SDS011;2026;51.002;13.668;2022-10-13T20:31:48;25.87;;;16.83;;
4023;SDS011;2026;51.002;13.668;2022-10-13T20:36:51;35.40;;;18.77;;
4023;SDS011;2026;51.002;13.668;2022-10-13T20:41:56;91.33;;;48.70;;
4023;SDS011;2026;51.002;13.668;2022-10-13T20:46:59;33.97;;;18.30;;
4023;SDS011;2026;51.002;13.668;2022-10-13T20:52:03;31.90;;;19.43;;
4023;SDS011;2026;51.002;13.668;2022-10-13T20:57:08;63.13;;;33.77;;
4023;SDS011;2026;51.002;13.668;2022-10-13T21:02:11;42.60;;;24.80;;
4023;SDS011;2026;51.002;13.668;2022-10-13T21:07:14;40.60;;;24.60;;
4023;SDS011;2026;51.002;13.668;2022-10-13T21:12:19;35.00;;;20.87;;
4023;SDS011;2026;51.002;13.668;2022-10-13T21:17:21;33.53;;;20.77;;
4023;SDS011;2026;51.002;13.668;2022-10-13T21:22:25;33.30;;;21.67;;
4023;SDS011;2026;51.002;13.668;2022-10-13T21:27:32;22.10;;;15.53;;
4023;SDS011;2026;51.002;13.668;2022-10-13T21:32:35;24.80;;;14.13;;
4023;SDS011;2026;51.002;13.668;2022-10-13T21:37:38;31.10;;;19.93;;
4023;SDS011;2026;51.002;13.668;2022-10-13T21:42:42;28.17;;;19.37;;
4023;SDS011;2026;51.002;13.668;2022-10-13T21:47:45;22.20;;;14.90;;
4023;SDS011;2026;51.002;13.668;2022-10-13T21:52:48;32.50;;;15.23;;
4023;SDS011;2026;51.002;13.668;2022-10-13T21:57:52;20.20;;;15.63;;
4023;SDS011;2026;51.002;13.668;2022-10-13T22:02:59;25.93;;;16.33;;
4023;SDS011;2026;51.002;13.668;2022-10-13T22:08:02;24.40;;;16.80;;
4023;SDS011;2026;51.002;13.668;2022-10-13T22:13:07;27.40;;;16.97;;
4023;SDS011;2026;51.002;13.668;2022-10-13T22:18:10;28.90;;;17.73;;
4023;SDS011;2026;51.002;13.668;2022-10-13T22:23:13;24.43;;;16.60;;
4023;SDS011;2026;51.002;13.668;2022-10-13T22:28:19;31.90;;;19.40;;
4023;SDS011;2026;51.002;13.668;2022-10-13T22:33:22;25.60;;;17.57;;
4023;SDS011;2026;51.002;13.668;2022-10-13T22:38:27;29.47;;;18.47;;
4023;SDS011;2026;51.002;13.668;2022-10-13T22:43:32;29.00;;;17.33;;
4023;SDS011;2026;51.002;13.668;2022-10-13T22:48:44;28.37;;;17.50;;
4023;SDS011;2026;51.002;13.668;2022-10-13T22:53:48;28.57;;;16.30;;
4023;SDS011;2026;51.002;13.668;2022-10-13T22:58:53;28.47;;;18.17;;
4023;SDS011;2026;51.002;13.668;2022-10-13T23:03:58;26.33;;;16.67;;
4023;SDS011;2026;51.002;13.668;2022-10-13T23:09:03;26.80;;;17.27;;
4023;SDS011;2026;51.002;13.668;2022-10-13T23:14:10;26.80;;;17.30;;
4023;SDS011;2026;51.002;13.668;2022-10-13T23:19:13;23.13;;;15.40;;
4023;SDS011;2026;51.002;13.668;2022-10-13T23:24:16;29.20;;;14.93;;
4023;SDS011;2026;51.002;13.668;2022-10-13T23:29:20;20.60;;;13.50;;
4023;SDS011;2026;51.002;13.668;2022-10-13T23:34:24;15.57;;;11.37;;
4023;SDS011;2026;51.002;13.668;2022-10-13T23:39:28;21.03;;;11.67;;
4023;SDS011;2026;51.002;13.668;2022-10-13T23:44:33;18.37;;;10.87;;
4023;SDS011;2026;51.002;13.668;2022-10-13T23:49:35;21.23;;;12.57;;
4023;SDS011;2026;51.002;13.668;2022-10-13T23:54:39;20.43;;;12.63;;
4023;SDS011;2026;51.002;13.668;2022-10-13T23:59:44;24.07;;;13.60;;
